OAL929 FTTJ-FOOL
Flight info
| Callsign | OAL929 |
|---|---|
| Flight time | 1h 53m |
| Altitude | 38000 |
| Route | FL UG857 PITRU UG727 TJR UH455 ARASI |
| Aircraft | B738/M-V/N |
Departure
| Time | 2026-04-26 12:42 |
|---|---|
| Airport | N'Djamena International Airport (FTTJ) |
Arrival
| Time | 2026-04-26 14:35 |
|---|---|
| Airport | Libreville Leon M'ba International Airport (FOOL) |
| Time | Latitude | Longitude | Altitude | Speed | Heading |
|---|---|---|---|---|---|
| 2026-04-26 12:34 | 12.12803 | 15.02353 | 987 ft | 0 kts | 139° |
| 2026-04-26 12:40 | 12.12725 | 15.02386 | 977 ft | 23 kts | 166° |
| 2026-04-26 12:40 | 12.12574 | 15.02433 | 985 ft | 23 kts | 144° |
| 2026-04-26 12:41 | 12.12540 | 15.02481 | 976 ft | 0 kts | 108° |
| 2026-04-26 12:41 | 12.12540 | 15.02482 | 976 ft | 2 kts | 108° |
| 2026-04-26 12:41 | 12.12578 | 15.02568 | 981 ft | 38 kts | 46° |
| 2026-04-26 12:42 | 12.12962 | 15.02966 | 981 ft | 117 kts | 46° |
| 2026-04-26 12:42 | 12.13683 | 15.03725 | 1076 ft | 172 kts | 45° |
| 2026-04-26 12:42 | 12.14502 | 15.04576 | 1871 ft | 173 kts | 47° |
| 2026-04-26 12:42 | 12.15023 | 15.05660 | 2637 ft | 175 kts | 91° |
| 2026-04-26 12:43 | 12.14681 | 15.06928 | 3084 ft | 204 kts | 118° |
| 2026-04-26 12:43 | 12.13657 | 15.08045 | 3276 ft | 231 kts | 147° |
| 2026-04-26 12:43 | 12.12047 | 15.08567 | 3419 ft | 260 kts | 177° |
| 2026-04-26 12:43 | 12.10242 | 15.08112 | 3830 ft | 278 kts | 210° |
| 2026-04-26 12:44 | 12.08655 | 15.06953 | 4593 ft | 282 kts | 216° |
| 2026-04-26 12:44 | 12.07084 | 15.05742 | 5354 ft | 284 kts | 216° |
| 2026-04-26 12:44 | 12.05490 | 15.04524 | 6120 ft | 287 kts | 216° |
| 2026-04-26 12:44 | 12.03876 | 15.03308 | 6872 ft | 289 kts | 215° |
| 2026-04-26 12:45 | 12.02242 | 15.02091 | 7584 ft | 292 kts | 215° |
| 2026-04-26 12:45 | 12.00607 | 15.00884 | 8301 ft | 296 kts | 214° |
| 2026-04-26 12:45 | 11.98928 | 14.99652 | 9024 ft | 299 kts | 214° |
| 2026-04-26 12:45 | 11.97224 | 14.98410 | 9751 ft | 303 kts | 214° |
| 2026-04-26 12:46 | 11.95493 | 14.97152 | 10316 ft | 312 kts | 214° |
| 2026-04-26 12:46 | 11.93650 | 14.95818 | 10423 ft | 337 kts | 214° |
| 2026-04-26 12:46 | 11.91681 | 14.94396 | 10600 ft | 357 kts | 214° |
| 2026-04-26 12:46 | 11.89593 | 14.92889 | 10741 ft | 376 kts | 214° |
| 2026-04-26 12:47 | 11.87434 | 14.91330 | 11179 ft | 383 kts | 214° |
| 2026-04-26 12:47 | 11.85253 | 14.89756 | 11812 ft | 384 kts | 214° |
| 2026-04-26 12:47 | 11.83065 | 14.88178 | 12427 ft | 386 kts | 214° |
| 2026-04-26 12:47 | 11.80859 | 14.86587 | 12990 ft | 390 kts | 214° |
| 2026-04-26 12:48 | 11.78631 | 14.84982 | 13557 ft | 393 kts | 214° |
| 2026-04-26 12:48 | 11.76391 | 14.83368 | 14074 ft | 396 kts | 214° |
| 2026-04-26 12:48 | 11.74132 | 14.81741 | 14587 ft | 399 kts | 214° |
| 2026-04-26 12:48 | 11.71855 | 14.80102 | 15073 ft | 402 kts | 214° |
| 2026-04-26 12:49 | 11.69563 | 14.78453 | 15549 ft | 405 kts | 214° |
| 2026-04-26 12:49 | 11.67254 | 14.76791 | 16032 ft | 408 kts | 214° |
| 2026-04-26 12:49 | 11.64927 | 14.75116 | 16516 ft | 411 kts | 214° |
| 2026-04-26 12:49 | 11.62585 | 14.73431 | 16975 ft | 414 kts | 214° |
| 2026-04-26 12:50 | 11.60220 | 14.71730 | 17417 ft | 417 kts | 214° |
| 2026-04-26 12:50 | 11.57842 | 14.70020 | 17887 ft | 419 kts | 215° |
| 2026-04-26 12:50 | 11.55454 | 14.68302 | 18311 ft | 422 kts | 215° |
| 2026-04-26 12:50 | 11.53046 | 14.66572 | 18704 ft | 424 kts | 215° |
| 2026-04-26 12:51 | 11.50663 | 14.64860 | 19131 ft | 424 kts | 215° |
| 2026-04-26 12:51 | 11.48252 | 14.63127 | 19555 ft | 425 kts | 215° |
| 2026-04-26 12:51 | 11.45826 | 14.61384 | 19942 ft | 427 kts | 215° |
| 2026-04-26 12:51 | 11.43394 | 14.59637 | 20308 ft | 429 kts | 215° |
| 2026-04-26 12:52 | 11.40955 | 14.57886 | 20683 ft | 430 kts | 215° |
| 2026-04-26 12:52 | 11.38504 | 14.56126 | 21049 ft | 432 kts | 215° |
| 2026-04-26 12:52 | 11.36042 | 14.54358 | 21404 ft | 433 kts | 215° |
| 2026-04-26 12:52 | 11.33576 | 14.52588 | 21757 ft | 435 kts | 215° |
| 2026-04-26 12:53 | 11.31101 | 14.50813 | 22104 ft | 436 kts | 215° |
| 2026-04-26 12:53 | 11.28618 | 14.49032 | 22417 ft | 438 kts | 215° |
| 2026-04-26 12:53 | 11.26119 | 14.47239 | 22711 ft | 440 kts | 215° |
| 2026-04-26 12:53 | 11.23612 | 14.45442 | 22990 ft | 442 kts | 215° |
| 2026-04-26 12:54 | 11.21088 | 14.43633 | 23265 ft | 444 kts | 215° |
| 2026-04-26 12:54 | 11.18559 | 14.41820 | 23525 ft | 446 kts | 215° |
| 2026-04-26 12:54 | 11.16019 | 14.40000 | 23751 ft | 447 kts | 215° |
| 2026-04-26 12:54 | 11.13471 | 14.38175 | 23997 ft | 448 kts | 215° |
| 2026-04-26 12:55 | 11.10913 | 14.36342 | 24226 ft | 450 kts | 215° |
| 2026-04-26 12:55 | 11.08346 | 14.34504 | 24434 ft | 452 kts | 215° |
| 2026-04-26 12:55 | 11.05808 | 14.32687 | 24641 ft | 453 kts | 215° |
| 2026-04-26 12:55 | 11.03227 | 14.30839 | 24868 ft | 454 kts | 215° |
| 2026-04-26 12:56 | 11.00637 | 14.28985 | 25100 ft | 455 kts | 215° |
| 2026-04-26 12:56 | 10.98035 | 14.27124 | 25312 ft | 457 kts | 215° |
| 2026-04-26 12:56 | 10.95428 | 14.25259 | 25541 ft | 458 kts | 215° |
| 2026-04-26 12:56 | 10.92815 | 14.23391 | 25747 ft | 460 kts | 215° |
| 2026-04-26 12:57 | 10.90196 | 14.21518 | 25945 ft | 461 kts | 215° |
| 2026-04-26 12:57 | 10.87568 | 14.19639 | 26122 ft | 463 kts | 215° |
| 2026-04-26 12:57 | 10.84931 | 14.17754 | 26322 ft | 464 kts | 215° |
| 2026-04-26 12:58 | 10.79630 | 14.13966 | 26702 ft | 467 kts | 215° |
| 2026-04-26 12:58 | 10.76972 | 14.12067 | 26893 ft | 468 kts | 215° |
| 2026-04-26 12:58 | 10.74303 | 14.10161 | 27077 ft | 469 kts | 215° |
| 2026-04-26 12:58 | 10.71627 | 14.08250 | 27243 ft | 471 kts | 215° |
| 2026-04-26 12:59 | 10.68932 | 14.06327 | 27409 ft | 472 kts | 215° |
| 2026-04-26 12:59 | 10.66230 | 14.04446 | 27597 ft | 473 kts | 214° |
| 2026-04-26 12:59 | 10.63468 | 14.02598 | 27756 ft | 475 kts | 213° |
| 2026-04-26 12:59 | 10.60714 | 14.00784 | 27921 ft | 476 kts | 213° |
| 2026-04-26 13:00 | 10.57935 | 13.98957 | 28087 ft | 477 kts | 213° |
| 2026-04-26 13:00 | 10.55160 | 13.97128 | 28269 ft | 477 kts | 213° |
| 2026-04-26 13:00 | 10.52384 | 13.95290 | 28504 ft | 477 kts | 213° |
| 2026-04-26 13:00 | 10.49588 | 13.93432 | 28772 ft | 475 kts | 213° |
| 2026-04-26 13:01 | 10.46849 | 13.91608 | 29055 ft | 474 kts | 213° |
| 2026-04-26 13:01 | 10.44087 | 13.89767 | 29309 ft | 473 kts | 213° |
| 2026-04-26 13:01 | 10.41325 | 13.87926 | 29529 ft | 473 kts | 213° |
| 2026-04-26 13:01 | 10.38593 | 13.86106 | 29782 ft | 473 kts | 213° |
| 2026-04-26 13:02 | 10.35849 | 13.84278 | 30029 ft | 472 kts | 213° |
| 2026-04-26 13:02 | 10.33080 | 13.82434 | 30239 ft | 472 kts | 213° |
| 2026-04-26 13:02 | 10.30345 | 13.80614 | 30444 ft | 472 kts | 213° |
| 2026-04-26 13:02 | 10.27621 | 13.78802 | 30659 ft | 471 kts | 213° |
| 2026-04-26 13:03 | 10.24859 | 13.76964 | 30874 ft | 471 kts | 213° |
| 2026-04-26 13:03 | 10.22141 | 13.75156 | 31091 ft | 470 kts | 213° |
| 2026-04-26 13:03 | 10.19426 | 13.73351 | 31293 ft | 470 kts | 213° |
| 2026-04-26 13:03 | 10.16682 | 13.71526 | 31532 ft | 469 kts | 213° |
| 2026-04-26 13:04 | 10.13957 | 13.69714 | 31786 ft | 468 kts | 213° |
| 2026-04-26 13:04 | 10.11213 | 13.67890 | 32038 ft | 467 kts | 213° |
| 2026-04-26 13:04 | 10.08516 | 13.66098 | 32254 ft | 467 kts | 213° |
| 2026-04-26 13:04 | 10.05777 | 13.64279 | 32475 ft | 467 kts | 213° |
| 2026-04-26 13:05 | 10.03094 | 13.62498 | 32727 ft | 466 kts | 213° |
| 2026-04-26 13:05 | 10.00372 | 13.60693 | 33000 ft | 465 kts | 213° |
| 2026-04-26 13:05 | 9.97655 | 13.58891 | 33251 ft | 464 kts | 213° |
| 2026-04-26 13:05 | 9.94975 | 13.57114 | 33469 ft | 464 kts | 213° |
| 2026-04-26 13:06 | 9.92269 | 13.55320 | 33685 ft | 463 kts | 213° |
| 2026-04-26 13:06 | 9.89590 | 13.53543 | 33939 ft | 462 kts | 213° |
| 2026-04-26 13:06 | 9.86883 | 13.51749 | 34185 ft | 461 kts | 213° |
| 2026-04-26 13:06 | 9.84234 | 13.49993 | 34400 ft | 460 kts | 213° |
| 2026-04-26 13:07 | 9.81549 | 13.48213 | 34580 ft | 460 kts | 213° |
| 2026-04-26 13:07 | 9.78860 | 13.46431 | 34763 ft | 460 kts | 213° |
| 2026-04-26 13:07 | 9.76204 | 13.44672 | 34968 ft | 459 kts | 213° |
| 2026-04-26 13:07 | 9.73498 | 13.42879 | 35207 ft | 458 kts | 213° |
| 2026-04-26 13:08 | 9.70870 | 13.41138 | 35386 ft | 458 kts | 213° |
| 2026-04-26 13:08 | 9.68177 | 13.39355 | 35525 ft | 459 kts | 213° |
| 2026-04-26 13:08 | 9.65512 | 13.37590 | 35694 ft | 459 kts | 213° |
| 2026-04-26 13:08 | 9.62865 | 13.35838 | 35928 ft | 457 kts | 213° |
| 2026-04-26 13:09 | 9.60135 | 13.34143 | 36117 ft | 457 kts | 206° |
| 2026-04-26 13:09 | 9.57165 | 13.33025 | 36062 ft | 462 kts | 193° |
| 2026-04-26 13:09 | 9.53979 | 13.32568 | 36416 ft | 457 kts | 182° |
| 2026-04-26 13:09 | 9.50827 | 13.32724 | 36767 ft | 453 kts | 174° |
| 2026-04-26 13:10 | 9.47724 | 13.33084 | 36972 ft | 452 kts | 174° |
| 2026-04-26 13:10 | 9.44585 | 13.33425 | 36938 ft | 457 kts | 174° |
| 2026-04-26 13:10 | 9.38220 | 13.34028 | 37163 ft | 459 kts | 175° |
| 2026-04-26 13:11 | 9.35013 | 13.34200 | 37355 ft | 458 kts | 182° |
| 2026-04-26 13:11 | 9.31848 | 13.33896 | 37456 ft | 459 kts | 190° |
| 2026-04-26 13:11 | 9.28797 | 13.33105 | 37602 ft | 458 kts | 198° |
| 2026-04-26 13:11 | 9.25747 | 13.32081 | 37920 ft | 454 kts | 198° |
| 2026-04-26 13:12 | 9.19734 | 13.30078 | 37892 ft | 458 kts | 198° |
| 2026-04-26 13:12 | 9.13658 | 13.28095 | 37858 ft | 460 kts | 197° |
| 2026-04-26 13:13 | 9.07535 | 13.26122 | 37865 ft | 461 kts | 197° |
| 2026-04-26 13:13 | 9.01422 | 13.24159 | 37866 ft | 461 kts | 197° |
| 2026-04-26 13:14 | 8.95352 | 13.22209 | 37857 ft | 462 kts | 197° |
| 2026-04-26 13:14 | 8.89222 | 13.20240 | 37874 ft | 461 kts | 197° |
| 2026-04-26 13:15 | 8.83126 | 13.18282 | 37907 ft | 460 kts | 197° |
| 2026-04-26 13:15 | 8.78047 | 13.16651 | 37906 ft | 459 kts | 197° |
| 2026-04-26 13:16 | 8.70950 | 13.14373 | 37904 ft | 459 kts | 197° |
| 2026-04-26 13:16 | 8.64844 | 13.12413 | 37882 ft | 459 kts | 197° |
| 2026-04-26 13:17 | 8.55825 | 13.09520 | 37913 ft | 458 kts | 197° |
| 2026-04-26 13:18 | 8.46683 | 13.06589 | 37915 ft | 458 kts | 197° |
| 2026-04-26 13:19 | 8.37616 | 13.03684 | 37884 ft | 458 kts | 197° |
| 2026-04-26 13:19 | 8.31536 | 13.01736 | 37905 ft | 458 kts | 197° |
| 2026-04-26 13:20 | 8.25449 | 12.99787 | 37905 ft | 459 kts | 197° |
| 2026-04-26 13:20 | 8.19346 | 12.97833 | 37875 ft | 460 kts | 197° |
| 2026-04-26 13:21 | 8.13241 | 12.95879 | 37869 ft | 461 kts | 197° |
| 2026-04-26 13:21 | 8.08158 | 12.94253 | 37908 ft | 461 kts | 197° |
| 2026-04-26 13:22 | 8.01018 | 12.91969 | 37906 ft | 462 kts | 197° |
| 2026-04-26 13:22 | 7.95890 | 12.90323 | 37885 ft | 463 kts | 197° |
| 2026-04-26 13:23 | 7.89770 | 12.88347 | 37904 ft | 463 kts | 197° |
| 2026-04-26 13:23 | 7.83658 | 12.86372 | 37911 ft | 463 kts | 197° |
| 2026-04-26 13:24 | 7.77494 | 12.84383 | 37907 ft | 464 kts | 197° |
| 2026-04-26 13:24 | 7.71371 | 12.82409 | 37915 ft | 464 kts | 197° |
| 2026-04-26 13:25 | 7.65197 | 12.80419 | 37918 ft | 464 kts | 197° |
| 2026-04-26 13:25 | 7.59070 | 12.78445 | 37918 ft | 463 kts | 197° |
| 2026-04-26 13:26 | 7.52928 | 12.76466 | 37934 ft | 463 kts | 197° |
| 2026-04-26 13:26 | 7.46804 | 12.74494 | 37925 ft | 463 kts | 197° |
| 2026-04-26 13:27 | 7.40665 | 12.72517 | 37927 ft | 462 kts | 197° |
| 2026-04-26 13:27 | 7.34561 | 12.70552 | 37934 ft | 462 kts | 197° |
| 2026-04-26 13:28 | 7.28420 | 12.68576 | 37924 ft | 461 kts | 197° |
| 2026-04-26 13:28 | 7.22323 | 12.66614 | 37920 ft | 461 kts | 197° |
| 2026-04-26 13:29 | 7.16242 | 12.64663 | 37932 ft | 461 kts | 197° |
| 2026-04-26 13:29 | 7.10094 | 12.62706 | 37923 ft | 461 kts | 197° |
| 2026-04-26 13:30 | 7.04005 | 12.60769 | 37927 ft | 461 kts | 197° |
| 2026-04-26 13:30 | 6.97901 | 12.58825 | 37926 ft | 461 kts | 197° |
| 2026-04-26 13:31 | 6.91772 | 12.56872 | 37917 ft | 462 kts | 197° |
| 2026-04-26 13:31 | 6.85617 | 12.54913 | 37920 ft | 463 kts | 197° |
| 2026-04-26 13:32 | 6.79485 | 12.52959 | 37915 ft | 464 kts | 197° |
| 2026-04-26 13:32 | 6.73344 | 12.51000 | 37910 ft | 464 kts | 197° |
| 2026-04-26 13:33 | 6.67168 | 12.49031 | 37914 ft | 465 kts | 197° |
| 2026-04-26 13:33 | 6.61011 | 12.47068 | 37900 ft | 465 kts | 197° |
| 2026-04-26 13:34 | 6.54846 | 12.45103 | 37901 ft | 465 kts | 197° |
| 2026-04-26 13:34 | 6.48703 | 12.43145 | 37905 ft | 465 kts | 197° |
| 2026-04-26 13:35 | 6.42529 | 12.41179 | 37902 ft | 465 kts | 197° |
| 2026-04-26 13:35 | 6.36335 | 12.39206 | 37896 ft | 465 kts | 197° |
| 2026-04-26 13:36 | 6.30161 | 12.37240 | 37901 ft | 465 kts | 197° |
| 2026-04-26 13:36 | 6.24046 | 12.35294 | 37900 ft | 464 kts | 197° |
| 2026-04-26 13:37 | 6.17874 | 12.33329 | 37898 ft | 464 kts | 197° |
| 2026-04-26 13:37 | 6.11735 | 12.31376 | 37914 ft | 463 kts | 197° |
| 2026-04-26 13:38 | 6.05590 | 12.29422 | 37911 ft | 463 kts | 197° |
| 2026-04-26 13:38 | 5.99432 | 12.27463 | 37904 ft | 463 kts | 197° |
| 2026-04-26 13:39 | 5.93287 | 12.25510 | 37923 ft | 463 kts | 196° |
| 2026-04-26 13:39 | 5.87177 | 12.23567 | 37923 ft | 463 kts | 196° |
| 2026-04-26 13:40 | 5.81045 | 12.21619 | 37918 ft | 463 kts | 196° |
| 2026-04-26 13:40 | 5.74877 | 12.19659 | 37933 ft | 464 kts | 196° |
| 2026-04-26 13:41 | 5.68722 | 12.17704 | 37935 ft | 464 kts | 196° |
| 2026-04-26 13:41 | 5.62548 | 12.15743 | 37921 ft | 465 kts | 196° |
| 2026-04-26 13:42 | 5.56398 | 12.13790 | 37938 ft | 465 kts | 196° |
| 2026-04-26 13:42 | 5.50239 | 12.11835 | 37930 ft | 466 kts | 196° |
| 2026-04-26 13:43 | 5.44055 | 12.09872 | 37938 ft | 466 kts | 196° |
| 2026-04-26 13:43 | 5.37900 | 12.07921 | 37935 ft | 466 kts | 196° |
| 2026-04-26 13:44 | 5.31707 | 12.05959 | 37932 ft | 466 kts | 196° |
| 2026-04-26 13:44 | 5.25505 | 12.03995 | 37939 ft | 466 kts | 196° |
| 2026-04-26 13:45 | 5.19346 | 12.02043 | 37942 ft | 466 kts | 196° |
| 2026-04-26 13:45 | 5.13159 | 12.00084 | 37926 ft | 466 kts | 196° |
| 2026-04-26 13:46 | 5.06960 | 11.98120 | 37947 ft | 466 kts | 196° |
| 2026-04-26 13:46 | 5.00792 | 11.96167 | 37941 ft | 465 kts | 197° |
| 2026-04-26 13:47 | 4.94612 | 11.94211 | 37941 ft | 465 kts | 197° |
| 2026-04-26 13:47 | 4.88471 | 11.92267 | 37951 ft | 465 kts | 197° |
| 2026-04-26 13:48 | 4.82317 | 11.90320 | 37953 ft | 464 kts | 196° |
| 2026-04-26 13:48 | 4.76151 | 11.88369 | 37946 ft | 464 kts | 196° |
| 2026-04-26 13:49 | 4.69975 | 11.86416 | 37961 ft | 464 kts | 196° |
| 2026-04-26 13:49 | 4.63836 | 11.84474 | 37961 ft | 463 kts | 196° |
| 2026-04-26 13:50 | 4.57718 | 11.82539 | 37959 ft | 463 kts | 196° |
| 2026-04-26 13:50 | 4.51579 | 11.80599 | 37973 ft | 462 kts | 196° |
| 2026-04-26 13:51 | 4.45442 | 11.78659 | 37972 ft | 462 kts | 196° |
| 2026-04-26 13:51 | 4.39283 | 11.76713 | 37974 ft | 462 kts | 196° |
| 2026-04-26 13:52 | 4.33148 | 11.74774 | 37987 ft | 462 kts | 196° |
| 2026-04-26 13:52 | 4.27043 | 11.72845 | 37986 ft | 462 kts | 196° |
| 2026-04-26 13:53 | 4.20905 | 11.70906 | 37986 ft | 462 kts | 196° |
| 2026-04-26 13:53 | 4.14767 | 11.68968 | 38001 ft | 462 kts | 196° |
| 2026-04-26 13:54 | 4.08653 | 11.67037 | 37997 ft | 462 kts | 196° |
| 2026-04-26 13:54 | 4.02531 | 11.65104 | 38004 ft | 462 kts | 196° |
| 2026-04-26 13:55 | 3.94361 | 11.62525 | 38019 ft | 462 kts | 196° |
| 2026-04-26 13:56 | 3.84155 | 11.59303 | 38017 ft | 463 kts | 196° |
| 2026-04-26 13:56 | 3.77968 | 11.57351 | 38020 ft | 463 kts | 196° |
| 2026-04-26 13:57 | 3.71908 | 11.55194 | 37964 ft | 465 kts | 206° |
| 2026-04-26 13:57 | 3.66491 | 11.51709 | 38115 ft | 463 kts | 213° |
| 2026-04-26 13:57 | 3.63828 | 11.49889 | 37996 ft | 466 kts | 213° |
| 2026-04-26 13:58 | 3.61141 | 11.48066 | 38080 ft | 464 kts | 213° |
| 2026-04-26 13:58 | 3.55773 | 11.44463 | 38033 ft | 466 kts | 212° |
| 2026-04-26 13:59 | 3.50380 | 11.40870 | 38008 ft | 466 kts | 212° |
| 2026-04-26 13:59 | 3.44978 | 11.37279 | 37999 ft | 467 kts | 212° |
| 2026-04-26 14:00 | 3.34162 | 11.30084 | 38019 ft | 467 kts | 212° |
| 2026-04-26 14:01 | 3.28763 | 11.26492 | 38022 ft | 468 kts | 212° |
| 2026-04-26 14:01 | 3.23327 | 11.22876 | 38012 ft | 469 kts | 212° |
| 2026-04-26 14:02 | 3.17880 | 11.19254 | 38003 ft | 470 kts | 212° |
| 2026-04-26 14:02 | 3.12458 | 11.15649 | 38015 ft | 470 kts | 212° |
| 2026-04-26 14:03 | 3.07006 | 11.12023 | 37993 ft | 471 kts | 212° |
| 2026-04-26 14:03 | 3.01556 | 11.08400 | 38010 ft | 470 kts | 212° |
| 2026-04-26 14:04 | 2.96084 | 11.04762 | 37999 ft | 471 kts | 212° |
| 2026-04-26 14:04 | 2.90668 | 11.01162 | 38005 ft | 471 kts | 212° |
| 2026-04-26 14:05 | 2.85201 | 10.97529 | 38006 ft | 472 kts | 212° |
| 2026-04-26 14:05 | 2.79704 | 10.93876 | 38005 ft | 472 kts | 212° |
| 2026-04-26 14:06 | 2.74239 | 10.90245 | 37984 ft | 473 kts | 212° |
| 2026-04-26 14:06 | 2.68762 | 10.86606 | 38006 ft | 472 kts | 212° |
| 2026-04-26 14:07 | 2.63326 | 10.82995 | 37982 ft | 473 kts | 212° |
| 2026-04-26 14:07 | 2.57834 | 10.79346 | 37986 ft | 473 kts | 212° |
| 2026-04-26 14:08 | 2.52364 | 10.75712 | 38034 ft | 473 kts | 213° |
| 2026-04-26 14:08 | 2.46855 | 10.72054 | 37948 ft | 477 kts | 213° |
| 2026-04-26 14:09 | 2.41333 | 10.68391 | 37960 ft | 476 kts | 213° |
| 2026-04-26 14:09 | 2.35814 | 10.64729 | 37958 ft | 475 kts | 213° |
| 2026-04-26 14:10 | 2.30333 | 10.61092 | 37975 ft | 474 kts | 213° |
| 2026-04-26 14:10 | 2.27570 | 10.59258 | 37542 ft | 479 kts | 213° |
| 2026-04-26 14:10 | 2.24797 | 10.57418 | 36921 ft | 479 kts | 213° |
| 2026-04-26 14:10 | 2.22027 | 10.55579 | 36460 ft | 475 kts | 212° |
| 2026-04-26 14:11 | 2.16520 | 10.51925 | 35158 ft | 476 kts | 212° |
| 2026-04-26 14:11 | 2.13750 | 10.50088 | 34391 ft | 482 kts | 212° |
| 2026-04-26 14:11 | 2.10953 | 10.48231 | 33686 ft | 481 kts | 212° |
| 2026-04-26 14:12 | 2.08156 | 10.46377 | 33043 ft | 481 kts | 212° |
| 2026-04-26 14:12 | 2.05364 | 10.44524 | 32005 ft | 488 kts | 212° |
| 2026-04-26 14:12 | 2.02531 | 10.42644 | 31622 ft | 479 kts | 212° |
| 2026-04-26 14:12 | 1.99735 | 10.40789 | 30663 ft | 487 kts | 212° |
| 2026-04-26 14:13 | 1.94142 | 10.37078 | 29607 ft | 477 kts | 212° |
| 2026-04-26 14:13 | 1.91391 | 10.35253 | 28800 ft | 478 kts | 212° |
| 2026-04-26 14:13 | 1.88665 | 10.33445 | 28337 ft | 470 kts | 212° |
| 2026-04-26 14:14 | 1.85946 | 10.31641 | 27841 ft | 465 kts | 212° |
| 2026-04-26 14:14 | 1.83232 | 10.29841 | 27122 ft | 465 kts | 212° |
| 2026-04-26 14:14 | 1.80564 | 10.28072 | 26729 ft | 458 kts | 212° |
| 2026-04-26 14:14 | 1.77965 | 10.26245 | 26127 ft | 457 kts | 216° |
| 2026-04-26 14:15 | 1.75474 | 10.24320 | 25614 ft | 453 kts | 217° |
| 2026-04-26 14:15 | 1.73012 | 10.22344 | 25103 ft | 450 kts | 218° |
| 2026-04-26 14:15 | 1.70600 | 10.20392 | 24526 ft | 450 kts | 218° |
| 2026-04-26 14:15 | 1.68161 | 10.18428 | 24009 ft | 447 kts | 218° |
| 2026-04-26 14:16 | 1.65751 | 10.16505 | 23418 ft | 446 kts | 218° |
| 2026-04-26 14:16 | 1.63315 | 10.14574 | 22816 ft | 444 kts | 217° |
| 2026-04-26 14:16 | 1.60872 | 10.12649 | 22245 ft | 441 kts | 217° |
| 2026-04-26 14:16 | 1.58493 | 10.10778 | 21709 ft | 437 kts | 217° |
| 2026-04-26 14:17 | 1.56119 | 10.08912 | 21188 ft | 434 kts | 218° |
| 2026-04-26 14:17 | 1.53731 | 10.07037 | 20647 ft | 431 kts | 218° |
| 2026-04-26 14:17 | 1.51374 | 10.05185 | 20126 ft | 428 kts | 218° |
| 2026-04-26 14:17 | 1.49839 | 10.03979 | 19789 ft | 427 kts | 218° |
| 2026-04-26 14:18 | 1.46725 | 10.01532 | 19068 ft | 425 kts | 218° |
| 2026-04-26 14:18 | 1.44423 | 9.99722 | 18530 ft | 423 kts | 218° |
| 2026-04-26 14:18 | 1.42866 | 9.98498 | 18175 ft | 422 kts | 218° |
| 2026-04-26 14:18 | 1.40567 | 9.96691 | 17580 ft | 420 kts | 218° |
| 2026-04-26 14:19 | 1.37549 | 9.94318 | 16893 ft | 414 kts | 218° |
| 2026-04-26 14:19 | 1.35295 | 9.92546 | 16364 ft | 411 kts | 218° |
| 2026-04-26 14:19 | 1.33805 | 9.91375 | 16032 ft | 409 kts | 218° |
| 2026-04-26 14:19 | 1.31560 | 9.89610 | 15525 ft | 406 kts | 218° |
| 2026-04-26 14:20 | 1.29361 | 9.87882 | 15017 ft | 403 kts | 218° |
| 2026-04-26 14:20 | 1.27143 | 9.86138 | 14482 ft | 402 kts | 218° |
| 2026-04-26 14:20 | 1.24973 | 9.84432 | 13995 ft | 399 kts | 218° |
| 2026-04-26 14:20 | 1.22798 | 9.82723 | 13444 ft | 398 kts | 218° |
| 2026-04-26 14:21 | 1.20650 | 9.81028 | 12933 ft | 394 kts | 219° |
| 2026-04-26 14:21 | 1.18480 | 9.79310 | 12436 ft | 391 kts | 219° |
| 2026-04-26 14:21 | 1.16375 | 9.77640 | 11951 ft | 389 kts | 219° |
| 2026-04-26 14:21 | 1.14266 | 9.75968 | 11459 ft | 387 kts | 219° |
| 2026-04-26 14:22 | 1.12154 | 9.74294 | 10955 ft | 385 kts | 219° |
| 2026-04-26 14:22 | 1.10087 | 9.72657 | 10778 ft | 373 kts | 219° |
| 2026-04-26 14:22 | 1.08106 | 9.71089 | 10568 ft | 353 kts | 219° |
| 2026-04-26 14:22 | 1.06237 | 9.69610 | 10437 ft | 334 kts | 219° |
| 2026-04-26 14:23 | 1.04453 | 9.68203 | 10253 ft | 319 kts | 219° |
| 2026-04-26 14:23 | 1.02746 | 9.66860 | 10113 ft | 305 kts | 219° |
| 2026-04-26 14:23 | 1.01115 | 9.65578 | 9988 ft | 292 kts | 219° |
| 2026-04-26 14:23 | 0.99565 | 9.64359 | 9736 ft | 285 kts | 219° |
| 2026-04-26 14:24 | 0.98021 | 9.63143 | 9440 ft | 279 kts | 219° |
| 2026-04-26 14:24 | 0.96513 | 9.61955 | 9156 ft | 274 kts | 220° |
| 2026-04-26 14:24 | 0.95031 | 9.60788 | 8880 ft | 269 kts | 220° |
| 2026-04-26 14:24 | 0.93577 | 9.59643 | 8614 ft | 264 kts | 220° |
| 2026-04-26 14:25 | 0.92148 | 9.58518 | 8349 ft | 260 kts | 220° |
| 2026-04-26 14:25 | 0.90728 | 9.57399 | 8098 ft | 260 kts | 220° |
| 2026-04-26 14:25 | 0.89291 | 9.56266 | 7851 ft | 268 kts | 220° |
| 2026-04-26 14:25 | 0.87802 | 9.55092 | 7569 ft | 275 kts | 220° |
| 2026-04-26 14:26 | 0.86298 | 9.53908 | 7283 ft | 275 kts | 220° |
| 2026-04-26 14:26 | 0.84799 | 9.52727 | 6999 ft | 274 kts | 220° |
| 2026-04-26 14:26 | 0.83304 | 9.51551 | 6723 ft | 273 kts | 220° |
| 2026-04-26 14:26 | 0.81815 | 9.50379 | 6445 ft | 272 kts | 220° |
| 2026-04-26 14:27 | 0.80338 | 9.49216 | 6183 ft | 265 kts | 220° |
| 2026-04-26 14:27 | 0.78951 | 9.48125 | 6099 ft | 243 kts | 220° |
| 2026-04-26 14:27 | 0.77674 | 9.47121 | 5961 ft | 224 kts | 220° |
| 2026-04-26 14:27 | 0.76501 | 9.46198 | 5849 ft | 205 kts | 220° |
| 2026-04-26 14:28 | 0.75403 | 9.45332 | 5381 ft | 205 kts | 220° |
| 2026-04-26 14:28 | 0.74337 | 9.44492 | 5285 ft | 192 kts | 220° |
| 2026-04-26 14:28 | 0.73257 | 9.43640 | 4998 ft | 196 kts | 220° |
| 2026-04-26 14:28 | 0.72188 | 9.42798 | 4736 ft | 194 kts | 220° |
| 2026-04-26 14:29 | 0.71150 | 9.41981 | 4533 ft | 189 kts | 220° |
| 2026-04-26 14:29 | 0.70133 | 9.41180 | 4368 ft | 185 kts | 220° |
| 2026-04-26 14:29 | 0.69115 | 9.40379 | 4169 ft | 186 kts | 220° |
| 2026-04-26 14:29 | 0.68134 | 9.39532 | 3948 ft | 187 kts | 234° |
| 2026-04-26 14:30 | 0.67590 | 9.38387 | 3870 ft | 181 kts | 250° |
| 2026-04-26 14:30 | 0.67055 | 9.37235 | 3766 ft | 182 kts | 245° |
| 2026-04-26 14:30 | 0.66484 | 9.36086 | 3681 ft | 185 kts | 245° |
| 2026-04-26 14:30 | 0.65916 | 9.34941 | 3643 ft | 184 kts | 245° |
| 2026-04-26 14:31 | 0.65282 | 9.33832 | 3565 ft | 186 kts | 229° |
| 2026-04-26 14:31 | 0.64155 | 9.33309 | 3510 ft | 187 kts | 180° |
| 2026-04-26 14:31 | 0.62863 | 9.33599 | 3332 ft | 195 kts | 165° |
| 2026-04-26 14:31 | 0.61542 | 9.33906 | 3078 ft | 193 kts | 166° |
| 2026-04-26 14:32 | 0.60274 | 9.34317 | 2820 ft | 189 kts | 161° |
| 2026-04-26 14:32 | 0.59096 | 9.34803 | 2621 ft | 180 kts | 156° |
| 2026-04-26 14:32 | 0.57978 | 9.35330 | 2360 ft | 171 kts | 154° |
| 2026-04-26 14:32 | 0.56951 | 9.35829 | 2174 ft | 160 kts | 154° |
| 2026-04-26 14:33 | 0.55963 | 9.36310 | 1931 ft | 155 kts | 154° |
| 2026-04-26 14:33 | 0.54996 | 9.36781 | 1754 ft | 156 kts | 154° |
| 2026-04-26 14:33 | 0.54018 | 9.37258 | 1537 ft | 156 kts | 154° |
| 2026-04-26 14:33 | 0.53049 | 9.37729 | 1342 ft | 155 kts | 154° |
| 2026-04-26 14:34 | 0.52093 | 9.38195 | 1141 ft | 154 kts | 154° |
| 2026-04-26 14:34 | 0.51130 | 9.38664 | 922 ft | 155 kts | 154° |
| 2026-04-26 14:34 | 0.50165 | 9.39134 | 736 ft | 154 kts | 154° |
| 2026-04-26 14:34 | 0.49192 | 9.39607 | 523 ft | 156 kts | 155° |
| 2026-04-26 14:35 | 0.48228 | 9.40077 | 311 ft | 151 kts | 154° |
| 2026-04-26 14:35 | 0.47296 | 9.40542 | 100 ft | 146 kts | 154° |
| 2026-04-26 14:35 | 0.46465 | 9.40943 | 37 ft | 99 kts | 154° |
| 2026-04-26 14:35 | 0.46235 | 9.41041 | 38 ft | 16 kts | 188° |
| 2026-04-26 14:36 | 0.46189 | 9.40957 | 37 ft | 0 kts | 243° |